createdAt,value
2018-06-02T00:02:20.135Z,18.27
2018-06-02T00:04:47.736Z,18.23
2018-06-02T00:07:15.327Z,18.16
2018-06-02T00:09:43.007Z,18.10
2018-06-02T00:12:10.844Z,18.07
2018-06-02T00:14:38.736Z,18.07
2018-06-02T00:17:06.372Z,18.06
2018-06-02T00:19:33.947Z,18.06
2018-06-02T00:22:01.547Z,18.06
2018-06-02T00:24:29.110Z,18.07
2018-06-02T00:26:57.069Z,18.06
2018-06-02T00:29:24.652Z,18.06
2018-06-02T00:31:52.223Z,18.05
2018-06-02T00:34:20.270Z,18.05
2018-06-02T00:36:47.843Z,18.01
2018-06-02T00:39:15.667Z,17.93
2018-06-02T00:41:43.635Z,17.86
2018-06-02T00:44:11.221Z,17.87
2018-06-02T00:46:39.064Z,17.80
2018-06-02T00:49:06.674Z,17.80
2018-06-02T00:51:34.506Z,17.78
2018-06-02T00:54:02.079Z,17.73
2018-06-02T00:56:29.927Z,17.75
2018-06-02T00:58:57.501Z,17.74
2018-06-02T01:01:25.444Z,17.74
2018-06-02T01:03:53.030Z,17.72
2018-06-02T01:06:20.662Z,17.71
2018-06-02T01:08:48.261Z,17.70
2018-06-02T01:11:16.081Z,17.70
2018-06-02T01:13:43.728Z,17.71
2018-06-02T01:16:11.546Z,17.71
2018-06-02T01:18:39.122Z,17.72
2018-06-02T01:21:06.711Z,17.69
2018-06-02T01:23:34.523Z,17.68
2018-06-02T01:26:02.214Z,17.67
2018-06-02T01:28:29.782Z,17.60
2018-06-02T01:30:57.363Z,17.60
2018-06-02T01:33:24.960Z,17.60
2018-06-02T01:35:52.556Z,17.60
2018-06-02T01:38:20.489Z,17.61
2018-06-02T01:40:48.126Z,17.61
2018-06-02T01:43:15.700Z,17.61
2018-06-02T01:45:43.354Z,17.60
2018-06-02T01:48:10.915Z,17.60
2018-06-02T01:50:38.548Z,17.58
2018-06-02T01:53:06.391Z,17.60
2018-06-02T01:55:33.988Z,17.60
2018-06-02T01:58:01.617Z,17.61
2018-06-02T02:00:29.304Z,17.55
2018-06-02T02:02:56.915Z,17.56
2018-06-02T02:05:24.508Z,17.59
2018-06-02T02:07:52.749Z,17.62
2018-06-02T02:10:20.316Z,17.60
2018-06-02T02:12:47.948Z,17.63
2018-06-02T02:15:15.595Z,17.65
2018-06-02T02:17:43.493Z,17.68
2018-06-02T02:20:11.181Z,17.63
2018-06-02T02:22:38.758Z,17.62
2018-06-02T02:25:06.372Z,17.61
2018-06-02T02:27:34.041Z,17.59
2018-06-02T02:30:01.841Z,17.64
2018-06-02T02:32:29.497Z,17.65
2018-06-02T02:34:57.337Z,17.68
2018-06-02T02:37:24.971Z,17.70
2018-06-02T02:39:52.535Z,17.73
2018-06-02T02:42:20.419Z,17.74
2018-06-02T02:44:48.014Z,17.66
2018-06-02T02:47:15.585Z,17.65
2018-06-02T02:49:43.424Z,17.68
2018-06-02T02:52:11.110Z,17.65
2018-06-02T02:54:38.811Z,17.65
2018-06-02T02:57:06.746Z,17.60
2018-06-02T02:59:34.422Z,17.55
2018-06-02T03:02:02.240Z,17.54
2018-06-02T03:04:29.813Z,17.54
2018-06-02T03:06:57.548Z,17.51
2018-06-02T03:09:25.244Z,17.49
2018-06-02T03:11:53.222Z,17.51
2018-06-02T03:14:20.826Z,17.48
2018-06-02T03:16:48.649Z,17.44
2018-06-02T03:19:16.305Z,17.46
2018-06-02T03:21:43.872Z,17.43
2018-06-02T03:24:11.578Z,17.43
2018-06-02T03:26:39.169Z,17.42
2018-06-02T03:29:06.814Z,17.45
2018-06-02T03:31:34.411Z,17.50
2018-06-02T03:34:02.088Z,17.53
2018-06-02T03:36:29.921Z,17.54
2018-06-02T03:38:58.018Z,17.53
2018-06-02T03:41:25.714Z,17.54
2018-06-02T03:43:53.608Z,17.55
2018-06-02T03:46:21.176Z,17.53
2018-06-02T03:48:48.846Z,17.51
2018-06-02T03:51:16.515Z,17.50
2018-06-02T03:53:44.094Z,17.50
2018-06-02T03:56:11.675Z,17.50
2018-06-02T03:58:39.269Z,17.47
2018-06-02T04:01:06.892Z,17.46
2018-06-02T04:03:34.567Z,17.46
2018-06-02T04:06:02.231Z,17.44
2018-06-02T04:08:29.852Z,17.44
2018-06-02T04:10:57.967Z,17.42
2018-06-02T04:13:25.608Z,17.37
2018-06-02T04:15:53.243Z,17.39
2018-06-02T04:18:21.042Z,17.41
2018-06-02T04:20:48.694Z,17.41
2018-06-02T04:23:16.270Z,17.40
2018-06-02T04:25:43.873Z,17.38
2018-06-02T04:28:11.437Z,17.41
2018-06-02T04:30:39.029Z,17.39
2018-06-02T04:33:06.677Z,17.40
2018-06-02T04:35:34.300Z,17.38
2018-06-02T04:38:02.209Z,17.38
2018-06-02T04:40:29.943Z,17.40
2018-06-02T04:42:57.808Z,17.42
2018-06-02T04:45:25.488Z,17.43
2018-06-02T04:47:53.103Z,17.47
2018-06-02T04:50:20.756Z,17.49
2018-06-02T04:52:48.638Z,17.53
2018-06-02T04:55:16.240Z,17.50
2018-06-02T04:57:43.813Z,17.48
2018-06-02T05:00:11.425Z,17.48
2018-06-02T05:02:39.228Z,17.49
2018-06-02T05:05:06.824Z,17.51
2018-06-02T05:07:34.539Z,17.55
2018-06-02T05:10:02.173Z,17.55
2018-06-02T05:12:29.807Z,17.58
2018-06-02T05:14:57.465Z,17.59
2018-06-02T05:17:25.472Z,17.61
2018-06-02T05:19:53.028Z,17.61
2018-06-02T05:22:20.832Z,17.60
2018-06-02T05:24:48.436Z,17.61
2018-06-02T05:27:16.239Z,17.62
2018-06-02T05:29:43.898Z,17.63
2018-06-02T05:32:11.573Z,17.61
2018-06-02T05:34:39.137Z,17.63
2018-06-02T05:37:07.004Z,17.63
2018-06-02T05:39:34.584Z,17.63
2018-06-02T05:42:02.226Z,17.61
2018-06-02T05:44:30.264Z,17.59
2018-06-02T05:46:57.844Z,17.58
2018-06-02T05:49:25.497Z,17.57
2018-06-02T05:51:53.580Z,17.56
2018-06-02T05:54:21.417Z,17.56
2018-06-02T05:56:49.758Z,17.58
2018-06-02T05:59:17.509Z,17.59
2018-06-02T06:01:45.160Z,17.59
2018-06-02T06:04:12.920Z,17.59
2018-06-02T06:06:40.499Z,17.60
2018-06-02T06:09:08.613Z,17.63
2018-06-02T06:11:36.184Z,17.64
2018-06-02T06:14:03.790Z,17.65
2018-06-02T06:16:31.460Z,17.67
2018-06-02T06:18:59.045Z,17.67
2018-06-02T06:21:26.633Z,17.69
2018-06-02T06:23:54.207Z,17.72
2018-06-02T06:26:21.979Z,17.73
2018-06-02T06:28:49.568Z,17.72
2018-06-02T06:31:17.140Z,17.67
2018-06-02T06:33:44.784Z,17.67
2018-06-02T06:36:12.412Z,17.65
2018-06-02T06:38:39.986Z,17.63
2018-06-02T06:41:07.575Z,17.60
2018-06-02T06:43:35.388Z,17.58
2018-06-02T06:46:03.898Z,17.58
2018-06-02T06:48:31.761Z,17.61
2018-06-02T06:50:59.417Z,17.61
2018-06-02T06:53:26.990Z,17.64
2018-06-02T06:55:54.615Z,17.65
2018-06-02T06:58:22.191Z,17.68
2018-06-02T07:00:49.767Z,17.72
2018-06-02T07:03:17.524Z,17.74
2018-06-02T07:05:45.383Z,17.75
2018-06-02T07:08:13.248Z,17.78
2018-06-02T07:10:40.870Z,17.80
2018-06-02T07:13:08.919Z,17.83
2018-06-02T07:15:36.593Z,17.86
2018-06-02T07:18:04.256Z,17.89
2018-06-02T07:20:31.825Z,17.90
2018-06-02T07:22:59.398Z,17.93
2018-06-02T07:25:27.337Z,17.95
2018-06-02T07:27:54.896Z,17.99
2018-06-02T07:30:22.864Z,18.00
2018-06-02T07:32:50.834Z,17.99
2018-06-02T07:35:18.402Z,18.00
2018-06-02T07:37:46.007Z,18.00
2018-06-02T07:40:13.579Z,18.02
2018-06-02T07:42:41.226Z,18.01
2018-06-02T07:45:08.793Z,18.00
2018-06-02T07:47:36.378Z,18.03
2018-06-02T07:50:04.048Z,18.03
2018-06-02T07:52:31.579Z,18.04
2018-06-02T07:54:59.247Z,18.05
2018-06-02T07:57:26.906Z,18.05
2018-06-02T07:59:54.853Z,18.05
2018-06-02T08:02:22.443Z,18.06
2018-06-02T08:04:50.345Z,18.04
2018-06-02T08:07:18.240Z,18.05
2018-06-02T08:09:46.069Z,18.08
2018-06-02T08:12:13.952Z,18.10
2018-06-02T08:14:41.624Z,18.11
2018-06-02T08:17:09.204Z,18.11
2018-06-02T08:19:36.766Z,18.13
2018-06-02T08:22:04.699Z,18.15
2018-06-02T08:24:32.269Z,18.15
2018-06-02T08:26:59.827Z,18.15
2018-06-02T08:29:27.542Z,18.15
2018-06-02T08:31:55.104Z,18.18
2018-06-02T08:34:22.907Z,18.18
2018-06-02T08:36:50.613Z,18.22
2018-06-02T08:39:18.236Z,18.26
2018-06-02T08:41:45.811Z,18.29
2018-06-02T08:44:13.482Z,18.34
2018-06-02T08:46:41.197Z,18.38
2018-06-02T08:49:08.767Z,18.37
2018-06-02T08:51:36.341Z,18.36
2018-06-02T08:54:04.356Z,18.36
2018-06-02T08:56:31.932Z,18.37
2018-06-02T08:58:59.798Z,18.34
2018-06-02T09:01:27.395Z,18.37
2018-06-02T09:03:55.229Z,18.37
2018-06-02T09:06:23.000Z,18.41
2018-06-02T09:08:50.797Z,18.43
2018-06-02T09:11:18.358Z,18.48
2018-06-02T09:13:45.960Z,18.49
2018-06-02T09:16:14.035Z,18.52
2018-06-02T09:18:41.668Z,18.52
2018-06-02T09:21:09.238Z,18.53
2018-06-02T09:23:37.168Z,18.57
2018-06-02T09:26:05.254Z,18.61
2018-06-02T09:28:32.888Z,18.63
2018-06-02T09:31:00.444Z,18.65
2018-06-02T09:33:28.324Z,18.63
2018-06-02T09:35:55.886Z,18.66
2018-06-02T09:38:23.531Z,18.68
2018-06-02T09:40:51.353Z,18.67
2018-06-02T09:43:18.928Z,18.70
2018-06-02T09:45:46.800Z,18.69
2018-06-02T09:48:14.404Z,18.71
2018-06-02T09:50:42.410Z,18.72
2018-06-02T09:53:10.088Z,18.75
2018-06-02T09:55:37.658Z,18.78
2018-06-02T09:58:05.257Z,18.79
2018-06-02T10:00:33.233Z,18.82
2018-06-02T10:03:00.836Z,18.87
2018-06-02T10:05:28.434Z,18.87
2018-06-02T10:07:56.004Z,18.88
2018-06-02T10:10:23.950Z,18.84
2018-06-02T10:12:51.527Z,18.77
2018-06-02T10:15:19.156Z,18.79
2018-06-02T10:17:46.944Z,18.80
2018-06-02T10:20:14.527Z,18.83
2018-06-02T10:22:42.095Z,18.81
2018-06-02T10:25:09.747Z,18.81
2018-06-02T10:27:37.314Z,18.81
2018-06-02T10:30:05.024Z,18.86
2018-06-02T10:32:32.584Z,18.91
2018-06-02T10:35:00.164Z,18.95
2018-06-02T10:37:27.789Z,18.99
2018-06-02T10:39:55.416Z,18.99
2018-06-02T10:42:22.994Z,19.03
2018-06-02T10:44:50.645Z,19.06
2018-06-02T10:47:18.225Z,19.05
2018-06-02T10:49:45.783Z,19.10
2018-06-02T10:52:13.629Z,19.11
2018-06-02T10:54:41.196Z,19.11
2018-06-02T10:57:08.818Z,19.09
2018-06-02T10:59:36.459Z,19.11
2018-06-02T11:02:04.042Z,19.14
2018-06-02T11:04:31.724Z,19.22
2018-06-02T11:06:59.343Z,19.23
2018-06-02T11:09:26.908Z,19.33
2018-06-02T11:11:54.813Z,19.44
2018-06-02T11:14:22.408Z,19.49
2018-06-02T11:16:50.131Z,19.57
2018-06-02T11:19:17.735Z,19.64
2018-06-02T11:21:45.309Z,19.66
2018-06-02T11:24:12.944Z,19.70
2018-06-02T11:26:40.520Z,19.64
2018-06-02T11:29:08.088Z,19.60
2018-06-02T11:31:35.690Z,19.58
2018-06-02T11:34:03.320Z,19.55
2018-06-02T11:36:31.261Z,19.60
2018-06-02T11:38:58.882Z,19.66
2018-06-02T11:41:26.527Z,19.71
2018-06-02T11:43:54.136Z,19.77
2018-06-02T11:46:22.067Z,19.81
2018-06-02T11:48:49.648Z,19.87
2018-06-02T11:51:17.348Z,19.95
2018-06-02T11:53:45.069Z,20.01
2018-06-02T11:56:12.641Z,20.04
2018-06-02T11:58:40.506Z,19.99
2018-06-02T12:01:08.764Z,19.98
2018-06-02T12:03:36.330Z,19.95
2018-06-02T12:06:04.871Z,19.97
2018-06-02T12:08:32.461Z,19.98
2018-06-02T12:11:00.467Z,20.02
2018-06-02T12:13:28.158Z,20.06
2018-06-02T12:15:56.102Z,20.09
2018-06-02T12:18:23.705Z,20.11
2018-06-02T12:20:51.351Z,20.13
2018-06-02T12:23:19.039Z,20.14
2018-06-02T12:25:46.665Z,20.19
2018-06-02T12:28:14.249Z,20.20
2018-06-02T12:30:42.034Z,20.18
2018-06-02T12:33:09.849Z,20.18
2018-06-02T12:35:37.416Z,20.21
2018-06-02T12:38:05.081Z,20.22
2018-06-02T12:40:32.737Z,20.22
2018-06-02T12:43:00.717Z,20.19
2018-06-02T12:45:28.298Z,20.21
2018-06-02T12:47:55.866Z,20.23
2018-06-02T12:50:23.500Z,20.23
2018-06-02T12:52:51.321Z,20.18
2018-06-02T12:55:18.901Z,20.18
2018-06-02T12:57:46.505Z,20.21
2018-06-02T13:00:14.068Z,20.22
2018-06-02T13:02:41.712Z,20.16
2018-06-02T13:05:09.341Z,20.10
2018-06-02T13:07:37.044Z,20.18
2018-06-02T13:10:04.677Z,20.30
2018-06-02T13:12:32.474Z,20.36
2018-06-02T13:15:00.122Z,20.37
2018-06-02T13:17:27.691Z,20.43
2018-06-02T13:19:55.653Z,20.47
2018-06-02T13:22:23.239Z,20.49
2018-06-02T13:24:50.810Z,20.52
2018-06-02T13:27:18.584Z,20.51
2018-06-02T13:29:46.206Z,20.46
2018-06-02T13:32:13.779Z,20.37
2018-06-02T13:34:41.380Z,20.35
2018-06-02T13:37:09.072Z,20.30
2018-06-02T13:39:36.700Z,20.31
2018-06-02T13:42:04.316Z,20.30
2018-06-02T13:44:31.968Z,20.27
2018-06-02T13:46:59.537Z,20.28
2018-06-02T13:49:27.194Z,20.21
2018-06-02T13:51:55.023Z,20.24
2018-06-02T13:54:22.703Z,20.30
2018-06-02T13:56:50.275Z,20.36
2018-06-02T13:59:17.934Z,20.41
2018-06-02T14:01:46.009Z,20.47
2018-06-02T14:04:13.580Z,20.53
2018-06-02T14:06:42.147Z,20.48
2018-06-02T14:09:09.758Z,20.43
2018-06-02T14:11:37.339Z,20.43
2018-06-02T14:14:05.627Z,20.43
2018-06-02T14:16:33.193Z,20.39
2018-06-02T14:19:00.839Z,20.41
2018-06-02T14:21:28.501Z,20.39
2018-06-02T14:23:56.143Z,20.33
2018-06-02T14:26:23.854Z,20.29
2018-06-02T14:28:51.445Z,20.24
2018-06-02T14:31:19.024Z,20.25
2018-06-02T14:33:46.621Z,20.29
2018-06-02T14:36:14.548Z,20.24
2018-06-02T14:38:42.133Z,20.32
2018-06-02T14:41:09.745Z,20.42
2018-06-02T14:43:37.478Z,20.46
2018-06-02T14:46:05.320Z,20.51
2018-06-02T14:48:33.039Z,20.60
2018-06-02T14:51:00.972Z,20.54
2018-06-02T14:53:28.542Z,20.65
2018-06-02T14:55:56.145Z,20.75
2018-06-02T14:58:23.785Z,20.84
2018-06-02T15:00:51.384Z,20.84
2018-06-02T15:03:19.108Z,20.81
2018-06-02T15:05:46.846Z,20.88
2018-06-02T15:08:14.505Z,20.94
2018-06-02T15:10:42.158Z,20.90
2018-06-02T15:13:09.888Z,20.93
2018-06-02T15:15:37.473Z,20.99
2018-06-02T15:18:05.983Z,21.07
2018-06-02T15:20:33.652Z,21.12
2018-06-02T15:23:01.292Z,21.20
2018-06-02T15:25:28.904Z,21.28
2018-06-02T15:27:56.536Z,21.34
2018-06-02T15:30:24.133Z,21.37
2018-06-02T15:32:51.715Z,21.36
2018-06-02T15:35:19.325Z,21.45
2018-06-02T15:37:46.952Z,21.56
2018-06-02T15:40:14.583Z,21.66
2018-06-02T15:42:42.356Z,21.68
2018-06-02T15:45:09.968Z,21.73
2018-06-02T15:47:37.781Z,21.66
2018-06-02T15:50:05.391Z,21.63
2018-06-02T15:52:33.255Z,21.62
2018-06-02T15:55:00.899Z,21.56
2018-06-02T15:57:28.477Z,21.53
2018-06-02T15:59:56.511Z,21.56
2018-06-02T16:02:24.072Z,21.52
2018-06-02T16:04:51.674Z,21.54
2018-06-02T16:07:19.352Z,21.58
2018-06-02T16:09:47.019Z,21.62
2018-06-02T16:12:14.944Z,21.63
2018-06-02T16:14:42.592Z,21.62
2018-06-02T16:17:10.251Z,21.63
2018-06-02T16:19:38.645Z,21.66
2018-06-02T16:22:06.316Z,21.63
2018-06-02T16:24:34.033Z,21.67
2018-06-02T16:27:01.815Z,21.67
2018-06-02T16:29:31.299Z,21.69
2018-06-02T16:31:59.274Z,21.67
2018-06-02T16:34:26.871Z,21.69
2018-06-02T16:36:55.126Z,21.71
2018-06-02T16:39:22.795Z,21.69
2018-06-02T16:41:52.935Z,21.66
2018-06-02T16:44:20.543Z,21.61
2018-06-02T16:46:49.414Z,21.60
2018-06-02T16:49:17.411Z,21.61
2018-06-02T16:51:45.095Z,21.60
2018-06-02T16:54:13.135Z,21.60
2018-06-02T16:56:40.728Z,21.62
2018-06-02T16:59:08.390Z,21.63
2018-06-02T17:01:36.163Z,21.61
2018-06-02T17:04:03.852Z,21.63
2018-06-02T17:06:31.711Z,21.63
2018-06-02T17:08:59.379Z,21.61
2018-06-02T17:11:27.108Z,21.60
2018-06-02T17:13:55.121Z,21.56
2018-06-02T17:16:23.257Z,21.51
2018-06-02T17:18:51.304Z,21.47
2018-06-02T17:21:18.888Z,21.38
2018-06-02T17:23:46.572Z,21.34
2018-06-02T17:26:14.185Z,21.34
2018-06-02T17:28:41.878Z,21.34
2018-06-02T17:31:09.741Z,21.33
2018-06-02T17:33:37.428Z,21.32
2018-06-02T17:36:05.120Z,21.31
2018-06-02T17:38:32.798Z,21.31
2018-06-02T17:41:00.418Z,21.27
2018-06-02T17:43:28.119Z,21.31
2018-06-02T17:45:55.785Z,21.32
2018-06-02T17:48:23.471Z,21.32
2018-06-02T17:50:51.183Z,21.29
2018-06-02T17:53:18.839Z,21.26
2018-06-02T17:55:46.442Z,21.22
2018-06-02T17:58:14.126Z,21.20
2018-06-02T18:00:41.724Z,21.17
2018-06-02T18:03:09.337Z,21.15
2018-06-02T18:05:37.269Z,21.05
2018-06-02T18:08:04.928Z,21.00
2018-06-02T18:10:32.663Z,21.00
2018-06-02T18:13:00.306Z,20.97
2018-06-02T18:15:29.701Z,20.97
2018-06-02T18:17:57.445Z,21.01
2018-06-02T18:20:25.216Z,21.06
2018-06-02T18:22:53.151Z,21.09
2018-06-02T18:25:21.015Z,21.09
2018-06-02T18:27:48.746Z,21.08
2018-06-02T18:30:16.654Z,21.07
2018-06-02T18:32:44.534Z,21.09
2018-06-02T18:35:12.208Z,21.05
2018-06-02T18:37:39.834Z,20.99
2018-06-02T18:40:08.348Z,20.99
2018-06-02T18:42:36.158Z,20.99
2018-06-02T18:45:04.039Z,20.97
2018-06-02T18:47:32.086Z,20.93
2018-06-02T18:49:59.734Z,20.88
2018-06-02T18:52:31.667Z,20.85
2018-06-02T18:54:59.250Z,20.81
2018-06-02T18:57:26.849Z,20.82
2018-06-02T18:59:54.536Z,20.80
2018-06-02T19:02:22.296Z,20.82
2018-06-02T19:04:50.157Z,20.81
2018-06-02T19:07:17.816Z,20.78
2018-06-02T19:09:45.645Z,20.76
2018-06-02T19:12:13.289Z,20.77
2018-06-02T19:14:40.888Z,20.76
2018-06-02T19:17:08.720Z,20.75
2018-06-02T19:19:36.368Z,20.72
2018-06-02T19:22:03.965Z,20.71
2018-06-02T19:24:31.663Z,20.72
2018-06-02T19:26:59.646Z,20.71
2018-06-02T19:29:27.237Z,20.71
2018-06-02T19:31:54.936Z,20.67
2018-06-02T19:34:22.644Z,20.66
2018-06-02T19:36:50.349Z,20.63
2018-06-02T19:39:17.995Z,20.62
2018-06-02T19:41:46.075Z,20.61
2018-06-02T19:44:13.661Z,20.62
2018-06-02T19:46:41.320Z,20.61
2018-06-02T19:49:09.042Z,20.59
2018-06-02T19:51:36.650Z,20.59
2018-06-02T19:54:04.235Z,20.58
2018-06-02T19:56:32.048Z,20.59
2018-06-02T19:58:59.777Z,20.57
2018-06-02T20:01:27.424Z,20.55
2018-06-02T20:03:55.104Z,20.52
2018-06-02T20:06:22.850Z,20.52
2018-06-02T20:08:50.444Z,20.50
2018-06-02T20:11:18.146Z,20.47
2018-06-02T20:13:45.778Z,20.44
2018-06-02T20:16:13.413Z,20.42
2018-06-02T20:18:41.396Z,20.39
2018-06-02T20:21:09.099Z,20.35
2018-06-02T20:23:36.766Z,20.32
2018-06-02T20:26:04.485Z,20.27
2018-06-02T20:28:32.150Z,20.24
2018-06-02T20:30:59.753Z,20.20
2018-06-02T20:33:27.365Z,20.17
2018-06-02T20:35:54.949Z,20.12
2018-06-02T20:38:22.609Z,20.08
2018-06-02T20:40:50.242Z,20.03
2018-06-02T20:43:17.969Z,19.98
2018-06-02T20:45:45.652Z,19.93
2018-06-02T20:48:13.336Z,19.90
2018-06-02T20:50:41.003Z,19.85
2018-06-02T20:53:08.672Z,19.81
2018-06-02T20:55:36.299Z,19.76
2018-06-02T20:58:04.396Z,19.72
2018-06-02T21:00:32.358Z,19.69
2018-06-02T21:03:00.272Z,19.65
2018-06-02T21:05:28.317Z,19.61
2018-06-02T21:07:56.317Z,19.57
2018-06-02T21:10:23.909Z,19.55
2018-06-02T21:12:51.631Z,19.52
2018-06-02T21:15:19.302Z,19.50
2018-06-02T21:17:46.968Z,19.49
2018-06-02T21:20:14.678Z,19.48
2018-06-02T21:22:42.400Z,19.46
2018-06-02T21:25:09.981Z,19.45
2018-06-02T21:27:38.031Z,19.44
2018-06-02T21:30:05.656Z,19.44
2018-06-02T21:32:33.277Z,19.45
2018-06-02T21:35:00.907Z,19.45
2018-06-02T21:37:28.519Z,19.44
2018-06-02T21:39:56.213Z,19.45
2018-06-02T21:42:23.861Z,19.45
2018-06-02T21:44:51.542Z,19.45
2018-06-02T21:47:19.247Z,19.44
2018-06-02T21:49:47.317Z,19.45
2018-06-02T21:52:15.025Z,19.46
2018-06-02T21:54:44.472Z,19.47
2018-06-02T21:57:12.116Z,19.45
2018-06-02T21:59:39.862Z,19.46
2018-06-02T22:02:07.812Z,19.46
2018-06-02T22:04:35.778Z,19.45
2018-06-02T22:07:03.433Z,19.47
2018-06-02T22:09:31.024Z,19.47
2018-06-02T22:11:58.719Z,19.47
2018-06-02T22:14:26.350Z,19.46
2018-06-02T22:16:54.084Z,19.46
2018-06-02T22:19:21.900Z,19.44
2018-06-02T22:21:49.483Z,19.43
2018-06-02T22:24:17.224Z,19.44
2018-06-02T22:26:44.965Z,19.44
2018-06-02T22:29:12.544Z,19.43
2018-06-02T22:31:40.280Z,19.41
2018-06-02T22:34:08.117Z,19.40
2018-06-02T22:36:35.776Z,19.40
2018-06-02T22:39:03.560Z,19.40
2018-06-02T22:41:31.204Z,19.41
2018-06-02T22:43:58.802Z,19.40
2018-06-02T22:46:26.757Z,19.41
2018-06-02T22:48:54.347Z,19.40
2018-06-02T22:55:09.560Z,19.01
2018-06-02T22:57:38.510Z,18.98
2018-06-02T23:00:07.471Z,18.98
2018-06-02T23:02:36.713Z,18.97
2018-06-02T23:05:05.580Z,18.94
2018-06-02T23:07:34.995Z,18.91
2018-06-02T23:10:04.196Z,18.89
2018-06-02T23:12:33.534Z,18.88
2018-06-02T23:15:02.608Z,18.85
2018-06-02T23:17:31.990Z,18.84
2018-06-02T23:20:01.220Z,18.83
2018-06-02T23:22:39.904Z,18.83
2018-06-02T23:25:08.832Z,18.81
2018-06-02T23:27:37.697Z,18.82
2018-06-02T23:30:07.045Z,18.83
2018-06-02T23:32:35.859Z,18.82
2018-06-02T23:35:04.707Z,18.82
2018-06-02T23:37:33.575Z,18.81
2018-06-02T23:40:02.445Z,18.80
2018-06-02T23:42:32.448Z,18.79
2018-06-02T23:45:01.328Z,18.78
2018-06-02T23:47:30.456Z,18.77
2018-06-02T23:50:00.315Z,18.77
2018-06-02T23:52:29.125Z,18.75
2018-06-02T23:54:57.959Z,18.73
2018-06-02T23:57:26.952Z,18.72
